sensor_id;sensor_type;location;lat;lon;timestamp;P1;durP1;ratioP1;P2;durP2;ratioP2
8058;SDS011;4072;42.668;23.396;2023-02-24T00:01:09;9.57;;;7.60;;
8058;SDS011;4072;42.668;23.396;2023-02-24T00:03:39;7.30;;;5.63;;
8058;SDS011;4072;42.668;23.396;2023-02-24T00:06:10;8.03;;;6.60;;
8058;SDS011;4072;42.668;23.396;2023-02-24T00:08:40;12.37;;;7.67;;
8058;SDS011;4072;42.668;23.396;2023-02-24T00:11:08;11.90;;;7.40;;
8058;SDS011;4072;42.668;23.396;2023-02-24T00:13:38;8.77;;;7.20;;
8058;SDS011;4072;42.668;23.396;2023-02-24T00:16:06;8.57;;;7.53;;
8058;SDS011;4072;42.668;23.396;2023-02-24T00:18:34;11.60;;;7.50;;
8058;SDS011;4072;42.668;23.396;2023-02-24T00:21:03;9.63;;;6.80;;
8058;SDS011;4072;42.668;23.396;2023-02-24T00:23:33;8.70;;;5.73;;
8058;SDS011;4072;42.668;23.396;2023-02-24T00:26:06;7.80;;;6.90;;
8058;SDS011;4072;42.668;23.396;2023-02-24T00:28:34;10.10;;;6.47;;
8058;SDS011;4072;42.668;23.396;2023-02-24T00:31:02;8.40;;;7.13;;
8058;SDS011;4072;42.668;23.396;2023-02-24T00:33:31;9.73;;;7.53;;
8058;SDS011;4072;42.668;23.396;2023-02-24T00:36:03;9.17;;;7.57;;
8058;SDS011;4072;42.668;23.396;2023-02-24T00:38:31;11.43;;;7.77;;
8058;SDS011;4072;42.668;23.396;2023-02-24T00:41:08;10.63;;;7.87;;
8058;SDS011;4072;42.668;23.396;2023-02-24T00:43:37;9.17;;;7.73;;
8058;SDS011;4072;42.668;23.396;2023-02-24T00:46:05;12.00;;;7.63;;
8058;SDS011;4072;42.668;23.396;2023-02-24T00:48:37;8.20;;;6.73;;
8058;SDS011;4072;42.668;23.396;2023-02-24T00:51:07;10.30;;;7.43;;
8058;SDS011;4072;42.668;23.396;2023-02-24T00:53:37;8.87;;;8.03;;
8058;SDS011;4072;42.668;23.396;2023-02-24T00:56:05;9.53;;;7.70;;
8058;SDS011;4072;42.668;23.396;2023-02-24T00:58:35;11.67;;;7.77;;
8058;SDS011;4072;42.668;23.396;2023-02-24T01:01:04;8.67;;;6.57;;
8058;SDS011;4072;42.668;23.396;2023-02-24T01:03:39;14.27;;;9.23;;
8058;SDS011;4072;42.668;23.396;2023-02-24T01:06:09;13.47;;;9.30;;
8058;SDS011;4072;42.668;23.396;2023-02-24T01:08:37;9.43;;;8.00;;
8058;SDS011;4072;42.668;23.396;2023-02-24T01:11:06;9.80;;;7.23;;
8058;SDS011;4072;42.668;23.396;2023-02-24T01:13:58;9.13;;;7.07;;
8058;SDS011;4072;42.668;23.396;2023-02-24T01:16:26;10.47;;;8.50;;
8058;SDS011;4072;42.668;23.396;2023-02-24T01:18:54;8.83;;;6.00;;
8058;SDS011;4072;42.668;23.396;2023-02-24T01:21:22;10.03;;;8.93;;
8058;SDS011;4072;42.668;23.396;2023-02-24T01:23:50;10.23;;;8.60;;
8058;SDS011;4072;42.668;23.396;2023-02-24T01:26:20;10.00;;;7.80;;
8058;SDS011;4072;42.668;23.396;2023-02-24T01:28:49;11.93;;;8.03;;
8058;SDS011;4072;42.668;23.396;2023-02-24T01:31:18;10.50;;;7.73;;
8058;SDS011;4072;42.668;23.396;2023-02-24T01:33:47;11.60;;;8.83;;
8058;SDS011;4072;42.668;23.396;2023-02-24T01:36:16;9.73;;;6.93;;
8058;SDS011;4072;42.668;23.396;2023-02-24T01:38:44;13.67;;;9.03;;
8058;SDS011;4072;42.668;23.396;2023-02-24T01:41:13;12.50;;;8.03;;
8058;SDS011;4072;42.668;23.396;2023-02-24T01:43:55;11.53;;;7.87;;
8058;SDS011;4072;42.668;23.396;2023-02-24T01:46:25;10.77;;;6.57;;
8058;SDS011;4072;42.668;23.396;2023-02-24T01:48:57;9.07;;;7.33;;
8058;SDS011;4072;42.668;23.396;2023-02-24T01:51:26;10.80;;;8.67;;
8058;SDS011;4072;42.668;23.396;2023-02-24T01:53:55;9.53;;;8.03;;
8058;SDS011;4072;42.668;23.396;2023-02-24T01:56:23;9.00;;;8.03;;
8058;SDS011;4072;42.668;23.396;2023-02-24T01:58:54;8.47;;;6.97;;
8058;SDS011;4072;42.668;23.396;2023-02-24T02:01:23;9.07;;;7.57;;
8058;SDS011;4072;42.668;23.396;2023-02-24T02:03:52;9.43;;;8.07;;
8058;SDS011;4072;42.668;23.396;2023-02-24T02:06:23;7.87;;;5.70;;
8058;SDS011;4072;42.668;23.396;2023-02-24T02:08:52;8.60;;;6.33;;
8058;SDS011;4072;42.668;23.396;2023-02-24T02:11:20;7.60;;;6.30;;
8058;SDS011;4072;42.668;23.396;2023-02-24T02:13:49;7.60;;;6.00;;
8058;SDS011;4072;42.668;23.396;2023-02-24T02:16:24;7.77;;;6.47;;
8058;SDS011;4072;42.668;23.396;2023-02-24T02:18:59;9.37;;;7.00;;
8058;SDS011;4072;42.668;23.396;2023-02-24T02:21:35;10.47;;;5.77;;
8058;SDS011;4072;42.668;23.396;2023-02-24T02:24:22;9.07;;;6.90;;
8058;SDS011;4072;42.668;23.396;2023-02-24T02:27:13;9.13;;;6.50;;
8058;SDS011;4072;42.668;23.396;2023-02-24T02:29:56;8.60;;;7.17;;
8058;SDS011;4072;42.668;23.396;2023-02-24T02:35:29;8.63;;;5.73;;
8058;SDS011;4072;42.668;23.396;2023-02-24T02:38:04;9.57;;;6.83;;
8058;SDS011;4072;42.668;23.396;2023-02-24T02:40:36;10.87;;;7.33;;
8058;SDS011;4072;42.668;23.396;2023-02-24T02:43:10;11.00;;;8.40;;
8058;SDS011;4072;42.668;23.396;2023-02-24T02:45:41;11.77;;;7.77;;
8058;SDS011;4072;42.668;23.396;2023-02-24T02:48:14;11.87;;;7.17;;
8058;SDS011;4072;42.668;23.396;2023-02-24T02:50:46;9.73;;;6.27;;
8058;SDS011;4072;42.668;23.396;2023-02-24T02:53:17;12.03;;;9.37;;
8058;SDS011;4072;42.668;23.396;2023-02-24T02:55:49;14.93;;;9.80;;
8058;SDS011;4072;42.668;23.396;2023-02-24T02:58:20;14.10;;;10.33;;
8058;SDS011;4072;42.668;23.396;2023-02-24T03:00:52;12.63;;;9.47;;
8058;SDS011;4072;42.668;23.396;2023-02-24T03:03:29;12.23;;;8.50;;
8058;SDS011;4072;42.668;23.396;2023-02-24T03:06:00;11.13;;;7.23;;
8058;SDS011;4072;42.668;23.396;2023-02-24T03:08:29;7.63;;;5.73;;
8058;SDS011;4072;42.668;23.396;2023-02-24T03:10:59;11.23;;;7.67;;
8058;SDS011;4072;42.668;23.396;2023-02-24T03:13:29;9.93;;;7.27;;
8058;SDS011;4072;42.668;23.396;2023-02-24T03:15:58;6.53;;;5.83;;
8058;SDS011;4072;42.668;23.396;2023-02-24T03:18:29;9.20;;;6.03;;
8058;SDS011;4072;42.668;23.396;2023-02-24T03:21:01;8.33;;;6.73;;
8058;SDS011;4072;42.668;23.396;2023-02-24T03:23:37;8.07;;;7.03;;
8058;SDS011;4072;42.668;23.396;2023-02-24T03:26:08;9.83;;;6.47;;
8058;SDS011;4072;42.668;23.396;2023-02-24T03:28:44;9.97;;;7.10;;
8058;SDS011;4072;42.668;23.396;2023-02-24T03:31:17;8.50;;;6.97;;
8058;SDS011;4072;42.668;23.396;2023-02-24T03:33:50;7.60;;;5.80;;
8058;SDS011;4072;42.668;23.396;2023-02-24T03:36:21;8.83;;;6.00;;
8058;SDS011;4072;42.668;23.396;2023-02-24T03:38:49;7.60;;;5.90;;
8058;SDS011;4072;42.668;23.396;2023-02-24T03:41:17;7.13;;;5.13;;
8058;SDS011;4072;42.668;23.396;2023-02-24T03:43:46;9.20;;;5.90;;
8058;SDS011;4072;42.668;23.396;2023-02-24T03:46:15;7.53;;;6.03;;
8058;SDS011;4072;42.668;23.396;2023-02-24T03:48:45;6.77;;;5.87;;
8058;SDS011;4072;42.668;23.396;2023-02-24T03:51:14;9.10;;;5.63;;
8058;SDS011;4072;42.668;23.396;2023-02-24T03:53:47;8.93;;;6.40;;
8058;SDS011;4072;42.668;23.396;2023-02-24T03:56:20;6.97;;;5.00;;
8058;SDS011;4072;42.668;23.396;2023-02-24T03:58:54;6.87;;;4.57;;
8058;SDS011;4072;42.668;23.396;2023-02-24T04:01:27;6.90;;;4.87;;
8058;SDS011;4072;42.668;23.396;2023-02-24T04:03:58;6.23;;;5.20;;
8058;SDS011;4072;42.668;23.396;2023-02-24T04:06:30;7.40;;;5.40;;
8058;SDS011;4072;42.668;23.396;2023-02-24T04:09:02;7.50;;;5.50;;
8058;SDS011;4072;42.668;23.396;2023-02-24T04:11:35;9.03;;;6.13;;
8058;SDS011;4072;42.668;23.396;2023-02-24T04:14:13;7.07;;;5.43;;
8058;SDS011;4072;42.668;23.396;2023-02-24T04:16:49;6.90;;;5.53;;
8058;SDS011;4072;42.668;23.396;2023-02-24T04:19:20;7.13;;;4.57;;
8058;SDS011;4072;42.668;23.396;2023-02-24T04:21:49;7.97;;;6.03;;
8058;SDS011;4072;42.668;23.396;2023-02-24T04:24:19;7.03;;;5.03;;
8058;SDS011;4072;42.668;23.396;2023-02-24T04:26:49;6.10;;;4.80;;
8058;SDS011;4072;42.668;23.396;2023-02-24T04:29:20;8.57;;;4.83;;
8058;SDS011;4072;42.668;23.396;2023-02-24T04:31:52;6.13;;;4.20;;
8058;SDS011;4072;42.668;23.396;2023-02-24T04:34:21;6.13;;;4.57;;
8058;SDS011;4072;42.668;23.396;2023-02-24T04:36:49;8.77;;;5.53;;
8058;SDS011;4072;42.668;23.396;2023-02-24T04:39:16;6.43;;;5.10;;
8058;SDS011;4072;42.668;23.396;2023-02-24T04:41:46;9.57;;;5.47;;
8058;SDS011;4072;42.668;23.396;2023-02-24T04:44:14;17.87;;;10.90;;
8058;SDS011;4072;42.668;23.396;2023-02-24T04:46:44;14.50;;;8.73;;
8058;SDS011;4072;42.668;23.396;2023-02-24T04:49:12;15.87;;;8.80;;
8058;SDS011;4072;42.668;23.396;2023-02-24T04:51:40;11.77;;;7.27;;
8058;SDS011;4072;42.668;23.396;2023-02-24T04:54:08;20.10;;;12.03;;
8058;SDS011;4072;42.668;23.396;2023-02-24T04:56:40;8.10;;;6.57;;
8058;SDS011;4072;42.668;23.396;2023-02-24T04:59:16;9.23;;;6.57;;
8058;SDS011;4072;42.668;23.396;2023-02-24T05:01:45;4.33;;;3.17;;
8058;SDS011;4072;42.668;23.396;2023-02-24T05:04:17;4.50;;;3.67;;
8058;SDS011;4072;42.668;23.396;2023-02-24T05:06:45;6.00;;;4.13;;
8058;SDS011;4072;42.668;23.396;2023-02-24T05:09:14;5.20;;;4.13;;
8058;SDS011;4072;42.668;23.396;2023-02-24T05:11:48;8.67;;;4.97;;
8058;SDS011;4072;42.668;23.396;2023-02-24T05:14:18;4.10;;;3.53;;
8058;SDS011;4072;42.668;23.396;2023-02-24T05:16:48;5.37;;;4.23;;
8058;SDS011;4072;42.668;23.396;2023-02-24T05:19:16;6.57;;;5.00;;
8058;SDS011;4072;42.668;23.396;2023-02-24T05:22:02;5.90;;;4.03;;
8058;SDS011;4072;42.668;23.396;2023-02-24T05:24:32;4.63;;;3.77;;
8058;SDS011;4072;42.668;23.396;2023-02-24T05:27:02;5.97;;;3.97;;
8058;SDS011;4072;42.668;23.396;2023-02-24T05:29:32;5.70;;;3.80;;
8058;SDS011;4072;42.668;23.396;2023-02-24T05:32:00;5.73;;;3.70;;
8058;SDS011;4072;42.668;23.396;2023-02-24T05:34:29;8.30;;;3.67;;
8058;SDS011;4072;42.668;23.396;2023-02-24T05:36:57;5.20;;;3.57;;
8058;SDS011;4072;42.668;23.396;2023-02-24T05:39:27;6.70;;;4.37;;
8058;SDS011;4072;42.668;23.396;2023-02-24T05:41:54;8.40;;;4.30;;
8058;SDS011;4072;42.668;23.396;2023-02-24T05:44:23;6.20;;;4.70;;
8058;SDS011;4072;42.668;23.396;2023-02-24T05:46:53;6.73;;;3.80;;
8058;SDS011;4072;42.668;23.396;2023-02-24T05:49:24;7.27;;;4.00;;
8058;SDS011;4072;42.668;23.396;2023-02-24T05:51:55;6.33;;;4.80;;
8058;SDS011;4072;42.668;23.396;2023-02-24T05:54:26;8.07;;;4.77;;
8058;SDS011;4072;42.668;23.396;2023-02-24T05:56:55;6.77;;;3.47;;
8058;SDS011;4072;42.668;23.396;2023-02-24T05:59:25;4.77;;;3.73;;
8058;SDS011;4072;42.668;23.396;2023-02-24T06:02:01;4.47;;;3.90;;
8058;SDS011;4072;42.668;23.396;2023-02-24T06:04:32;7.80;;;4.67;;
8058;SDS011;4072;42.668;23.396;2023-02-24T06:07:12;9.40;;;4.87;;
8058;SDS011;4072;42.668;23.396;2023-02-24T06:09:44;8.53;;;5.13;;
8058;SDS011;4072;42.668;23.396;2023-02-24T06:12:16;12.93;;;4.03;;
8058;SDS011;4072;42.668;23.396;2023-02-24T06:14:44;6.93;;;4.37;;
8058;SDS011;4072;42.668;23.396;2023-02-24T06:17:13;9.60;;;5.03;;
8058;SDS011;4072;42.668;23.396;2023-02-24T06:19:42;8.67;;;4.70;;
8058;SDS011;4072;42.668;23.396;2023-02-24T06:22:11;8.57;;;4.33;;
8058;SDS011;4072;42.668;23.396;2023-02-24T06:24:39;6.20;;;4.60;;
8058;SDS011;4072;42.668;23.396;2023-02-24T06:27:10;5.83;;;4.43;;
8058;SDS011;4072;42.668;23.396;2023-02-24T06:29:43;8.70;;;4.73;;
8058;SDS011;4072;42.668;23.396;2023-02-24T06:32:11;7.13;;;4.67;;
8058;SDS011;4072;42.668;23.396;2023-02-24T06:34:40;7.67;;;4.80;;
8058;SDS011;4072;42.668;23.396;2023-02-24T06:37:09;6.80;;;4.73;;
8058;SDS011;4072;42.668;23.396;2023-02-24T06:39:38;6.83;;;4.00;;
8058;SDS011;4072;42.668;23.396;2023-02-24T06:42:06;7.13;;;4.93;;
8058;SDS011;4072;42.668;23.396;2023-02-24T06:44:35;8.40;;;6.10;;
8058;SDS011;4072;42.668;23.396;2023-02-24T06:47:03;7.57;;;5.13;;
8058;SDS011;4072;42.668;23.396;2023-02-24T06:49:32;7.23;;;5.30;;
8058;SDS011;4072;42.668;23.396;2023-02-24T06:52:02;7.90;;;4.27;;
8058;SDS011;4072;42.668;23.396;2023-02-24T06:54:30;10.03;;;5.97;;
8058;SDS011;4072;42.668;23.396;2023-02-24T06:57:03;10.37;;;5.10;;
8058;SDS011;4072;42.668;23.396;2023-02-24T06:59:31;7.33;;;5.27;;
8058;SDS011;4072;42.668;23.396;2023-02-24T07:01:59;8.50;;;5.17;;
8058;SDS011;4072;42.668;23.396;2023-02-24T07:04:28;8.37;;;5.93;;
8058;SDS011;4072;42.668;23.396;2023-02-24T07:07:03;9.53;;;5.47;;
8058;SDS011;4072;42.668;23.396;2023-02-24T07:09:31;7.50;;;5.33;;
8058;SDS011;4072;42.668;23.396;2023-02-24T07:12:01;8.87;;;5.70;;
8058;SDS011;4072;42.668;23.396;2023-02-24T07:14:29;7.37;;;5.87;;
8058;SDS011;4072;42.668;23.396;2023-02-24T07:16:58;7.93;;;5.77;;
8058;SDS011;4072;42.668;23.396;2023-02-24T07:19:26;6.90;;;5.57;;
8058;SDS011;4072;42.668;23.396;2023-02-24T07:21:55;9.83;;;5.17;;
8058;SDS011;4072;42.668;23.396;2023-02-24T07:24:27;9.93;;;5.90;;
8058;SDS011;4072;42.668;23.396;2023-02-24T07:27:02;9.77;;;6.23;;
8058;SDS011;4072;42.668;23.396;2023-02-24T07:29:31;10.33;;;5.80;;
8058;SDS011;4072;42.668;23.396;2023-02-24T07:31:59;8.20;;;5.73;;
8058;SDS011;4072;42.668;23.396;2023-02-24T07:34:29;11.17;;;5.23;;
8058;SDS011;4072;42.668;23.396;2023-02-24T07:36:57;9.30;;;6.10;;
8058;SDS011;4072;42.668;23.396;2023-02-24T07:39:29;7.73;;;5.30;;
8058;SDS011;4072;42.668;23.396;2023-02-24T07:41:57;13.43;;;9.37;;
8058;SDS011;4072;42.668;23.396;2023-02-24T07:44:25;15.87;;;9.47;;
8058;SDS011;4072;42.668;23.396;2023-02-24T07:46:54;12.03;;;8.03;;
8058;SDS011;4072;42.668;23.396;2023-02-24T07:49:25;11.47;;;7.07;;
8058;SDS011;4072;42.668;23.396;2023-02-24T07:51:55;11.27;;;6.83;;
8058;SDS011;4072;42.668;23.396;2023-02-24T07:54:24;9.63;;;6.27;;
8058;SDS011;4072;42.668;23.396;2023-02-24T07:56:57;11.80;;;6.90;;
8058;SDS011;4072;42.668;23.396;2023-02-24T07:59:26;12.83;;;7.37;;
8058;SDS011;4072;42.668;23.396;2023-02-24T08:01:54;11.20;;;7.33;;
8058;SDS011;4072;42.668;23.396;2023-02-24T08:04:23;13.83;;;8.70;;
8058;SDS011;4072;42.668;23.396;2023-02-24T08:06:51;22.93;;;13.50;;
8058;SDS011;4072;42.668;23.396;2023-02-24T08:09:23;31.40;;;18.20;;
8058;SDS011;4072;42.668;23.396;2023-02-24T08:12:07;23.70;;;11.87;;
8058;SDS011;4072;42.668;23.396;2023-02-24T08:14:35;16.37;;;9.53;;
8058;SDS011;4072;42.668;23.396;2023-02-24T08:17:10;13.90;;;8.00;;
8058;SDS011;4072;42.668;23.396;2023-02-24T08:19:45;11.50;;;7.93;;
8058;SDS011;4072;42.668;23.396;2023-02-24T08:22:13;15.07;;;9.33;;
8058;SDS011;4072;42.668;23.396;2023-02-24T08:24:50;11.17;;;7.80;;
8058;SDS011;4072;42.668;23.396;2023-02-24T08:27:21;11.27;;;6.13;;
8058;SDS011;4072;42.668;23.396;2023-02-24T08:29:50;11.53;;;6.97;;
8058;SDS011;4072;42.668;23.396;2023-02-24T08:32:25;7.60;;;5.47;;
8058;SDS011;4072;42.668;23.396;2023-02-24T08:34:59;9.43;;;6.33;;
8058;SDS011;4072;42.668;23.396;2023-02-24T08:37:29;9.50;;;6.10;;
8058;SDS011;4072;42.668;23.396;2023-02-24T08:40:06;10.00;;;6.23;;
8058;SDS011;4072;42.668;23.396;2023-02-24T08:42:56;9.80;;;6.67;;
8058;SDS011;4072;42.668;23.396;2023-02-24T08:45:24;10.93;;;6.37;;
8058;SDS011;4072;42.668;23.396;2023-02-24T08:47:54;15.57;;;9.97;;
8058;SDS011;4072;42.668;23.396;2023-02-24T08:50:26;6.20;;;4.47;;
8058;SDS011;4072;42.668;23.396;2023-02-24T08:52:57;8.73;;;6.27;;
8058;SDS011;4072;42.668;23.396;2023-02-24T08:55:26;12.10;;;7.97;;
8058;SDS011;4072;42.668;23.396;2023-02-24T08:58:01;13.47;;;7.30;;
8058;SDS011;4072;42.668;23.396;2023-02-24T09:00:28;9.53;;;6.97;;
8058;SDS011;4072;42.668;23.396;2023-02-24T09:03:15;6.80;;;4.60;;
8058;SDS011;4072;42.668;23.396;2023-02-24T09:05:57;9.10;;;5.67;;
8058;SDS011;4072;42.668;23.396;2023-02-24T09:08:25;11.50;;;6.33;;
8058;SDS011;4072;42.668;23.396;2023-02-24T09:10:59;8.43;;;6.20;;
8058;SDS011;4072;42.668;23.396;2023-02-24T09:13:28;7.93;;;5.97;;
8058;SDS011;4072;42.668;23.396;2023-02-24T09:15:59;11.63;;;7.50;;
8058;SDS011;4072;42.668;23.396;2023-02-24T09:18:28;10.50;;;7.00;;
8058;SDS011;4072;42.668;23.396;2023-02-24T09:21:07;7.70;;;6.03;;
8058;SDS011;4072;42.668;23.396;2023-02-24T09:23:58;9.70;;;7.17;;
8058;SDS011;4072;42.668;23.396;2023-02-24T09:26:29;9.27;;;6.37;;
8058;SDS011;4072;42.668;23.396;2023-02-24T09:29:10;9.47;;;6.63;;
8058;SDS011;4072;42.668;23.396;2023-02-24T09:31:59;9.47;;;6.20;;
8058;SDS011;4072;42.668;23.396;2023-02-24T09:34:31;9.80;;;6.43;;
8058;SDS011;4072;42.668;23.396;2023-02-24T09:36:59;9.33;;;6.07;;
8058;SDS011;4072;42.668;23.396;2023-02-24T09:39:31;11.37;;;6.50;;
8058;SDS011;4072;42.668;23.396;2023-02-24T09:42:21;10.83;;;7.10;;
8058;SDS011;4072;42.668;23.396;2023-02-24T09:45:03;10.47;;;6.47;;
8058;SDS011;4072;42.668;23.396;2023-02-24T09:47:37;7.63;;;6.03;;
8058;SDS011;4072;42.668;23.396;2023-02-24T09:50:27;8.80;;;6.50;;
8058;SDS011;4072;42.668;23.396;2023-02-24T09:53:29;11.10;;;6.73;;
8058;SDS011;4072;42.668;23.396;2023-02-24T09:56:09;13.13;;;8.20;;
8058;SDS011;4072;42.668;23.396;2023-02-24T09:58:42;11.17;;;7.50;;
8058;SDS011;4072;42.668;23.396;2023-02-24T10:01:24;14.30;;;5.97;;
8058;SDS011;4072;42.668;23.396;2023-02-24T10:04:01;10.83;;;7.03;;
8058;SDS011;4072;42.668;23.396;2023-02-24T10:06:47;9.90;;;6.60;;
8058;SDS011;4072;42.668;23.396;2023-02-24T10:09:17;7.73;;;5.23;;
8058;SDS011;4072;42.668;23.396;2023-02-24T10:11:50;10.63;;;7.80;;
8058;SDS011;4072;42.668;23.396;2023-02-24T10:14:24;12.80;;;8.90;;
8058;SDS011;4072;42.668;23.396;2023-02-24T10:17:11;11.80;;;6.83;;
8058;SDS011;4072;42.668;23.396;2023-02-24T10:19:50;11.00;;;6.77;;
8058;SDS011;4072;42.668;23.396;2023-02-24T10:25:25;9.43;;;5.57;;
8058;SDS011;4072;42.668;23.396;2023-02-24T10:28:03;8.70;;;6.67;;
8058;SDS011;4072;42.668;23.396;2023-02-24T10:30:37;16.63;;;10.27;;
8058;SDS011;4072;42.668;23.396;2023-02-24T10:33:33;9.60;;;7.80;;
8058;SDS011;4072;42.668;23.396;2023-02-24T10:36:05;10.03;;;7.87;;
8058;SDS011;4072;42.668;23.396;2023-02-24T10:38:35;12.10;;;7.97;;
8058;SDS011;4072;42.668;23.396;2023-02-24T10:41:03;11.73;;;7.50;;
8058;SDS011;4072;42.668;23.396;2023-02-24T10:43:32;12.57;;;9.00;;
8058;SDS011;4072;42.668;23.396;2023-02-24T10:46:19;13.43;;;8.47;;
8058;SDS011;4072;42.668;23.396;2023-02-24T10:49:07;11.73;;;7.93;;
8058;SDS011;4072;42.668;23.396;2023-02-24T10:51:37;14.27;;;8.20;;
8058;SDS011;4072;42.668;23.396;2023-02-24T10:54:09;15.30;;;9.40;;
8058;SDS011;4072;42.668;23.396;2023-02-24T10:57:03;9.17;;;6.40;;
8058;SDS011;4072;42.668;23.396;2023-02-24T10:59:42;18.10;;;10.53;;
8058;SDS011;4072;42.668;23.396;2023-02-24T11:02:24;12.43;;;8.57;;
8058;SDS011;4072;42.668;23.396;2023-02-24T11:05:05;13.43;;;8.40;;
8058;SDS011;4072;42.668;23.396;2023-02-24T11:08:03;11.63;;;8.53;;
8058;SDS011;4072;42.668;23.396;2023-02-24T11:10:37;12.10;;;9.23;;
8058;SDS011;4072;42.668;23.396;2023-02-24T11:13:18;14.40;;;7.93;;
8058;SDS011;4072;42.668;23.396;2023-02-24T11:16:06;10.63;;;7.43;;
8058;SDS011;4072;42.668;23.396;2023-02-24T11:18:52;10.07;;;8.33;;
8058;SDS011;4072;42.668;23.396;2023-02-24T11:21:23;11.80;;;9.23;;
8058;SDS011;4072;42.668;23.396;2023-02-24T11:23:51;12.00;;;8.40;;
8058;SDS011;4072;42.668;23.396;2023-02-24T11:26:23;11.80;;;9.03;;
8058;SDS011;4072;42.668;23.396;2023-02-24T11:29:01;10.93;;;8.53;;
8058;SDS011;4072;42.668;23.396;2023-02-24T11:31:45;12.70;;;8.90;;
8058;SDS011;4072;42.668;23.396;2023-02-24T11:34:18;12.87;;;9.07;;
8058;SDS011;4072;42.668;23.396;2023-02-24T11:36:49;11.70;;;8.57;;
8058;SDS011;4072;42.668;23.396;2023-02-24T11:39:26;13.43;;;9.63;;
8058;SDS011;4072;42.668;23.396;2023-02-24T11:41:58;12.70;;;8.63;;
8058;SDS011;4072;42.668;23.396;2023-02-24T11:44:28;14.10;;;10.17;;
8058;SDS011;4072;42.668;23.396;2023-02-24T11:47:01;11.10;;;8.70;;
8058;SDS011;4072;42.668;23.396;2023-02-24T11:49:35;11.70;;;7.37;;
8058;SDS011;4072;42.668;23.396;2023-02-24T11:52:08;11.17;;;7.73;;
8058;SDS011;4072;42.668;23.396;2023-02-24T11:54:37;12.00;;;6.97;;
8058;SDS011;4072;42.668;23.396;2023-02-24T11:57:09;11.23;;;6.90;;
8058;SDS011;4072;42.668;23.396;2023-02-24T11:59:41;11.20;;;7.37;;
8058;SDS011;4072;42.668;23.396;2023-02-24T12:02:12;13.17;;;8.20;;
8058;SDS011;4072;42.668;23.396;2023-02-24T12:04:43;11.60;;;8.57;;
8058;SDS011;4072;42.668;23.396;2023-02-24T12:07:19;9.00;;;7.10;;
8058;SDS011;4072;42.668;23.396;2023-02-24T12:09:49;11.43;;;9.23;;
8058;SDS011;4072;42.668;23.396;2023-02-24T12:12:27;10.53;;;8.80;;
8058;SDS011;4072;42.668;23.396;2023-02-24T12:14:58;12.27;;;7.97;;
8058;SDS011;4072;42.668;23.396;2023-02-24T12:17:29;13.63;;;9.60;;
8058;SDS011;4072;42.668;23.396;2023-02-24T12:19:59;12.30;;;8.83;;
8058;SDS011;4072;42.668;23.396;2023-02-24T12:22:34;11.27;;;8.93;;
8058;SDS011;4072;42.668;23.396;2023-02-24T12:25:09;12.43;;;9.20;;
8058;SDS011;4072;42.668;23.396;2023-02-24T12:27:40;10.53;;;7.93;;
8058;SDS011;4072;42.668;23.396;2023-02-24T12:30:23;12.53;;;9.73;;
8058;SDS011;4072;42.668;23.396;2023-02-24T12:33:02;12.70;;;6.90;;
8058;SDS011;4072;42.668;23.396;2023-02-24T12:35:36;10.30;;;8.00;;
8058;SDS011;4072;42.668;23.396;2023-02-24T12:38:12;9.67;;;7.93;;
8058;SDS011;4072;42.668;23.396;2023-02-24T12:40:43;9.67;;;7.70;;
8058;SDS011;4072;42.668;23.396;2023-02-24T12:43:17;10.67;;;8.57;;
8058;SDS011;4072;42.668;23.396;2023-02-24T12:45:51;11.73;;;8.50;;
8058;SDS011;4072;42.668;23.396;2023-02-24T12:48:28;11.50;;;9.27;;
8058;SDS011;4072;42.668;23.396;2023-02-24T12:50:59;13.67;;;8.80;;
8058;SDS011;4072;42.668;23.396;2023-02-24T12:53:33;13.20;;;9.00;;
8058;SDS011;4072;42.668;23.396;2023-02-24T12:56:05;13.10;;;8.70;;
8058;SDS011;4072;42.668;23.396;2023-02-24T12:58:36;14.17;;;9.10;;
8058;SDS011;4072;42.668;23.396;2023-02-24T13:01:07;10.97;;;8.67;;
8058;SDS011;4072;42.668;23.396;2023-02-24T13:03:40;14.97;;;8.27;;
8058;SDS011;4072;42.668;23.396;2023-02-24T13:06:13;10.87;;;8.50;;
8058;SDS011;4072;42.668;23.396;2023-02-24T13:08:47;12.63;;;8.20;;
8058;SDS011;4072;42.668;23.396;2023-02-24T13:11:21;9.90;;;8.30;;
8058;SDS011;4072;42.668;23.396;2023-02-24T13:13:51;12.10;;;7.10;;
8058;SDS011;4072;42.668;23.396;2023-02-24T13:16:28;11.73;;;9.10;;
8058;SDS011;4072;42.668;23.396;2023-02-24T13:19:04;10.87;;;8.47;;
8058;SDS011;4072;42.668;23.396;2023-02-24T13:21:32;12.30;;;7.63;;
8058;SDS011;4072;42.668;23.396;2023-02-24T13:24:19;9.97;;;8.20;;
8058;SDS011;4072;42.668;23.396;2023-02-24T13:26:48;13.97;;;9.27;;
8058;SDS011;4072;42.668;23.396;2023-02-24T13:29:16;12.33;;;8.50;;
8058;SDS011;4072;42.668;23.396;2023-02-24T13:31:45;15.57;;;8.20;;
8058;SDS011;4072;42.668;23.396;2023-02-24T13:34:14;13.00;;;8.47;;
8058;SDS011;4072;42.668;23.396;2023-02-24T13:36:55;12.57;;;8.43;;
8058;SDS011;4072;42.668;23.396;2023-02-24T13:39:30;12.93;;;8.67;;
8058;SDS011;4072;42.668;23.396;2023-02-24T13:42:03;9.43;;;7.20;;
8058;SDS011;4072;42.668;23.396;2023-02-24T13:44:31;8.93;;;6.93;;
8058;SDS011;4072;42.668;23.396;2023-02-24T13:49:48;10.73;;;7.53;;
8058;SDS011;4072;42.668;23.396;2023-02-24T13:52:21;14.07;;;7.97;;
8058;SDS011;4072;42.668;23.396;2023-02-24T13:54:59;11.13;;;8.43;;
8058;SDS011;4072;42.668;23.396;2023-02-24T13:57:48;12.93;;;10.10;;
8058;SDS011;4072;42.668;23.396;2023-02-24T14:00:24;16.80;;;11.67;;
8058;SDS011;4072;42.668;23.396;2023-02-24T14:03:07;17.27;;;11.60;;
8058;SDS011;4072;42.668;23.396;2023-02-24T14:05:36;16.37;;;11.53;;
8058;SDS011;4072;42.668;23.396;2023-02-24T14:08:11;19.10;;;13.40;;
8058;SDS011;4072;42.668;23.396;2023-02-24T14:10:44;19.13;;;13.70;;
8058;SDS011;4072;42.668;23.396;2023-02-24T14:13:15;16.33;;;11.40;;
8058;SDS011;4072;42.668;23.396;2023-02-24T14:15:45;18.13;;;11.93;;
8058;SDS011;4072;42.668;23.396;2023-02-24T14:18:17;17.90;;;13.27;;
8058;SDS011;4072;42.668;23.396;2023-02-24T14:20:45;19.63;;;13.37;;
8058;SDS011;4072;42.668;23.396;2023-02-24T14:23:20;19.40;;;12.10;;
8058;SDS011;4072;42.668;23.396;2023-02-24T14:25:53;15.50;;;11.67;;
8058;SDS011;4072;42.668;23.396;2023-02-24T14:28:22;18.67;;;13.07;;
8058;SDS011;4072;42.668;23.396;2023-02-24T14:30:51;21.40;;;14.70;;
8058;SDS011;4072;42.668;23.396;2023-02-24T14:33:22;29.60;;;22.73;;
8058;SDS011;4072;42.668;23.396;2023-02-24T14:35:52;32.87;;;24.00;;
8058;SDS011;4072;42.668;23.396;2023-02-24T14:38:27;29.07;;;20.00;;
8058;SDS011;4072;42.668;23.396;2023-02-24T14:40:56;25.53;;;18.87;;
8058;SDS011;4072;42.668;23.396;2023-02-24T14:43:25;26.87;;;18.83;;
8058;SDS011;4072;42.668;23.396;2023-02-24T14:45:53;23.10;;;16.20;;
8058;SDS011;4072;42.668;23.396;2023-02-24T14:48:24;19.17;;;14.07;;
8058;SDS011;4072;42.668;23.396;2023-02-24T14:50:52;21.20;;;14.40;;
8058;SDS011;4072;42.668;23.396;2023-02-24T14:53:22;18.43;;;12.60;;
8058;SDS011;4072;42.668;23.396;2023-02-24T14:55:52;21.37;;;14.17;;
8058;SDS011;4072;42.668;23.396;2023-02-24T14:58:25;23.70;;;15.83;;
8058;SDS011;4072;42.668;23.396;2023-02-24T15:00:55;21.93;;;15.53;;
8058;SDS011;4072;42.668;23.396;2023-02-24T15:03:25;19.33;;;14.93;;
8058;SDS011;4072;42.668;23.396;2023-02-24T15:05:57;20.33;;;14.90;;
8058;SDS011;4072;42.668;23.396;2023-02-24T15:08:29;21.47;;;14.60;;
8058;SDS011;4072;42.668;23.396;2023-02-24T15:10:58;24.10;;;14.97;;
8058;SDS011;4072;42.668;23.396;2023-02-24T15:13:31;20.27;;;15.93;;
8058;SDS011;4072;42.668;23.396;2023-02-24T15:16:02;20.73;;;15.77;;
8058;SDS011;4072;42.668;23.396;2023-02-24T15:18:38;19.47;;;15.07;;
8058;SDS011;4072;42.668;23.396;2023-02-24T15:21:13;27.60;;;17.47;;
8058;SDS011;4072;42.668;23.396;2023-02-24T15:23:45;26.40;;;17.17;;
8058;SDS011;4072;42.668;23.396;2023-02-24T15:26:23;26.33;;;15.97;;
8058;SDS011;4072;42.668;23.396;2023-02-24T15:28:56;33.07;;;16.57;;
8058;SDS011;4072;42.668;23.396;2023-02-24T15:31:25;20.60;;;15.37;;
8058;SDS011;4072;42.668;23.396;2023-02-24T15:33:55;19.23;;;14.33;;